Time;durP1;ratioP1;P1;durP2;ratioP2;P2;SDS_P1;SDS_P2;PMS_P1;PMS_P2;Temp;Humidity;BMP_temperature;BMP_pressure;BME280_temperature;BME280_humidity;BME280_pressure;Samples;Min_cycle;Max_cycle;Signal;HPM_P1;HPM_P2
2021/05/11 00:00:46;;;;;;;1.85;0.40;;;16.00;75.20;;;;;;4704016;30;20052;-86
2021/05/11 00:03:13;;;;;;;3.85;0.50;;;16.00;74.80;;;;;;4730813;30;20051;-85
2021/05/11 00:05:39;;;;;;;1.33;0.60;;;15.90;74.80;;;;;;4744352;30;20060;-86
2021/05/11 00:08:06;;;;;;;2.38;0.50;;;15.90;75.00;;;;;;4730118;30;20389;-85
2021/05/11 00:10:32;;;;;;;4.35;0.55;;;15.80;75.10;;;;;;4742861;30;20056;-86
2021/05/11 00:12:59;;;;;;;4.35;0.65;;;15.80;75.10;;;;;;4716525;30;20406;-86
2021/05/11 00:15:26;;;;;;;3.85;0.60;;;15.80;75.40;;;;;;4708361;30;20060;-85
2021/05/11 00:17:53;;;;;;;4.13;0.50;;;15.70;75.60;;;;;;4725310;30;20625;-85
2021/05/11 00:20:20;;;;;;;4.15;0.60;;;15.70;75.80;;;;;;4720178;30;20059;-88
2021/05/11 00:22:48;;;;;;;1.70;0.50;;;15.70;76.00;;;;;;4718441;30;20424;-84
2021/05/11 00:25:14;;;;;;;3.22;1.00;;;15.60;76.80;;;;;;4730072;30;20051;-84
2021/05/11 00:27:41;;;;;;;19.90;14.90;;;15.60;76.20;;;;;;4745449;30;20059;-85
2021/05/11 00:30:09;;;;;;;8.68;6.10;;;15.60;76.30;;;;;;4714018;30;20052;-81
2021/05/11 00:32:36;;;;;;;4.28;2.85;;;15.60;76.40;;;;;;4720754;30;20829;-85
2021/05/11 00:35:03;;;;;;;4.68;1.30;;;15.60;76.50;;;;;;4731195;30;20059;-86
2021/05/11 00:37:30;;;;;;;4.07;1.00;;;15.50;76.60;;;;;;4722402;30;20048;-85
2021/05/11 00:39:56;;;;;;;3.08;0.95;;;15.50;76.70;;;;;;4728669;30;20051;-84
2021/05/11 00:42:23;;;;;;;3.33;0.70;;;15.50;76.90;;;;;;4719496;30;20052;-85
2021/05/11 00:44:52;;;;;;;3.63;0.80;;;15.50;77.00;;;;;;4706872;30;20048;-86
2021/05/11 00:47:18;;;;;;;4.50;0.80;;;15.40;77.30;;;;;;4736794;30;20500;-85
2021/05/11 00:49:45;;;;;;;3.03;0.82;;;15.40;77.70;;;;;;4729365;30;20051;-85
2021/05/11 00:52:11;;;;;;;3.35;0.80;;;15.40;78.10;;;;;;4729533;30;20040;-85
2021/05/11 00:54:38;;;;;;;5.72;0.70;;;15.30;78.10;;;;;;4744044;30;20064;-85
2021/05/11 00:57:05;;;;;;;3.38;0.70;;;15.30;78.20;;;;;;4721107;30;20052;-84
2021/05/11 00:59:38;;;;;;;5.45;0.90;;;15.30;78.50;;;;;;4729067;30;20522;-86
2021/05/11 01:02:07;;;;;;;4.60;0.75;;;15.20;78.70;;;;;;4707614;30;20059;-85
2021/05/11 01:04:34;;;;;;;2.85;0.70;;;15.20;79.10;;;;;;4731799;30;20044;-85
2021/05/11 01:07:01;;;;;;;5.57;0.80;;;15.20;79.20;;;;;;4733225;30;20381;-85
2021/05/11 01:09:27;;;;;;;4.47;0.80;;;15.10;79.30;;;;;;4718536;30;20052;-84
2021/05/11 01:11:55;;;;;;;3.22;1.00;;;15.10;79.40;;;;;;4738544;30;20059;-84
2021/05/11 01:14:25;;;;;;;6.00;1.00;;;15.10;79.50;;;;;;4739613;30;20063;-85
2021/05/11 01:16:58;;;;;;;5.80;0.80;;;15.10;80.00;;;;;;4733226;30;20052;-85
2021/05/11 01:19:38;;;;;;;4.47;0.80;;;15.10;80.10;;;;;;4733148;30;20059;-85
2021/05/11 01:24:39;;;;;;;5.07;0.90;;;15.00;81.00;;;;;;4736242;30;20059;-84
2021/05/11 01:30:00;;;;;;;6.53;1.23;;;14.90;81.30;;;;;;4718286;30;20048;-85
2021/05/11 01:51:47;;;;;;;5.47;1.25;;;14.70;83.20;;;;;;4732564;30;20051;-85
2021/05/11 01:54:44;;;;;;;3.38;1.10;;;14.70;83.70;;;;;;4733281;30;21093;-85
2021/05/11 02:25:04;;;;;;;8.27;4.05;;;14.60;86.60;;;;;;4730659;30;20056;-86
2021/05/11 02:27:31;;;;;;;11.73;4.22;;;14.60;87.10;;;;;;4747269;30;20052;-85
2021/05/11 02:29:58;;;;;;;9.65;3.90;;;14.50;87.20;;;;;;4731361;30;20056;-85
2021/05/11 02:32:24;;;;;;;5.53;2.65;;;14.50;87.50;;;;;;4706516;30;20454;-86
2021/05/11 02:34:54;;;;;;;7.97;2.40;;;14.50;87.40;;;;;;4747120;30;20118;-86
2021/05/11 02:37:21;;;;;;;4.88;2.45;;;14.50;87.10;;;;;;4747289;30;20048;-86
2021/05/11 02:39:47;;;;;;;6.25;2.60;;;14.50;87.00;;;;;;4710518;30;20052;-86
2021/05/11 02:42:14;;;;;;;5.40;1.92;;;14.50;87.00;;;;;;4717969;30;20049;-85
2021/05/11 02:44:43;;;;;;;10.30;2.78;;;14.50;87.00;;;;;;4732995;30;20063;-85
2021/05/11 02:47:09;;;;;;;7.20;2.85;;;14.50;87.20;;;;;;4749243;30;20044;-85
2021/05/11 02:49:48;;;;;;;5.95;2.97;;;14.50;87.20;;;;;;4731700;30;20917;-85
2021/05/11 02:52:15;;;;;;;5.65;2.72;;;14.50;87.40;;;;;;4731853;30;20043;-85
2021/05/11 02:54:41;;;;;;;4.68;2.85;;;14.50;88.10;;;;;;4718815;30;20044;-85
2021/05/11 02:57:08;;;;;;;7.57;3.60;;;14.50;87.70;;;;;;4725167;30;20400;-85
2021/05/11 02:59:35;;;;;;;6.15;2.90;;;14.40;87.90;;;;;;4731664;30;20043;-85
2021/05/11 03:02:01;;;;;;;8.63;3.95;;;14.40;88.10;;;;;;4731076;30;20056;-85
2021/05/11 03:04:28;;;;;;;7.97;4.07;;;14.40;88.60;;;;;;4717875;30;20794;-85
2021/05/11 03:06:57;;;;;;;9.70;3.50;;;14.40;88.80;;;;;;4726459;30;20048;-86
2021/05/11 03:09:25;;;;;;;8.60;4.40;;;14.40;88.90;;;;;;4734011;30;20063;-85
2021/05/11 03:11:53;;;;;;;6.75;3.80;;;14.40;89.30;;;;;;4735528;30;20453;-86
2021/05/11 03:14:20;;;;;;;9.82;4.07;;;14.40;89.30;;;;;;4732186;30;20051;-86
2021/05/11 03:16:53;;;;;;;8.02;3.60;;;14.40;89.60;;;;;;4731857;30;20052;-85
2021/05/11 03:19:20;;;;;;;8.38;3.50;;;14.30;89.50;;;;;;4716017;30;20082;-85
2021/05/11 03:21:46;;;;;;;6.35;3.20;;;14.30;89.60;;;;;;4730248;30;20526;-85
2021/05/11 03:24:16;;;;;;;7.35;2.97;;;14.40;89.60;;;;;;4722629;30;20056;-85
2021/05/11 03:26:42;;;;;;;5.68;2.58;;;14.40;89.50;;;;;;4715471;30;20044;-86
2021/05/11 03:29:18;;;;;;;6.50;2.58;;;14.40;89.40;;;;;;4738356;30;20052;-85
2021/05/11 03:31:47;;;;;;;3.92;2.53;;;14.40;89.40;;;;;;4710385;30;20062;-85
2021/05/11 03:34:16;;;;;;;6.25;2.65;;;14.40;89.50;;;;;;4716844;30;20047;-84
2021/05/11 03:36:43;;;;;;;7.60;3.05;;;14.40;89.50;;;;;;4708138;30;20056;-85
2021/05/11 03:39:09;;;;;;;5.45;2.38;;;14.40;89.40;;;;;;4731204;30;20072;-85
2021/05/11 03:41:41;;;;;;;18.15;3.55;;;14.40;89.50;;;;;;4730290;30;20064;-85
2021/05/11 03:44:20;;;;;;;9.00;3.10;;;14.40;89.50;;;;;;4709494;30;20051;-85
2021/05/11 03:46:49;;;;;;;4.30;2.88;;;14.40;89.50;;;;;;4721936;30;20497;-85
2021/05/11 03:49:16;;;;;;;6.30;3.03;;;14.40;89.40;;;;;;4720344;30;20044;-85
2021/05/11 03:51:42;;;;;;;4.75;2.55;;;14.40;90.00;;;;;;4715791;30;20044;-85
2021/05/11 03:54:13;;;;;;;5.88;2.80;;;14.40;89.50;;;;;;4723554;30;20056;-85
2021/05/11 03:56:43;;;;;;;6.63;3.58;;;14.40;89.50;;;;;;4725071;30;20069;-86
2021/05/11 03:59:12;;;;;;;3.80;2.63;;;14.40;89.50;;;;;;4732790;30;20422;-86
2021/05/11 04:01:39;;;;;;;5.97;2.50;;;14.40;89.50;;;;;;4746837;30;20064;-82
2021/05/11 04:04:08;;;;;;;6.78;2.80;;;14.40;89.40;;;;;;4746186;30;20500;-85
2021/05/11 04:06:36;;;;;;;7.20;3.15;;;14.40;89.40;;;;;;4730937;30;20172;-85
2021/05/11 04:16:56;;;;;;;7.57;4.05;;;14.40;89.40;;;;;;4729593;30;20063;-85
2021/05/11 04:19:25;;;;;;;6.15;3.90;;;14.50;89.40;;;;;;4703748;30;20052;-86
2021/05/11 04:21:55;;;;;;;7.50;2.95;;;14.50;89.30;;;;;;4722922;30;20059;-84
2021/05/11 04:24:24;;;;;;;3.38;2.42;;;14.50;89.30;;;;;;4725494;30;20444;-84
2021/05/11 04:26:50;;;;;;;6.32;2.83;;;14.50;89.30;;;;;;4715428;30;20052;-85
2021/05/11 04:29:17;;;;;;;3.72;2.47;;;14.50;89.30;;;;;;4701679;30;20508;-84
2021/05/11 04:31:46;;;;;;;5.78;3.13;;;14.50;89.50;;;;;;4714664;30;20036;-84
2021/05/11 04:34:13;;;;;;;7.82;3.00;;;14.50;89.60;;;;;;4744394;30;20052;-84
2021/05/11 04:36:39;;;;;;;9.00;3.35;;;14.50;89.70;;;;;;4745031;30;20052;-84
2021/05/11 04:39:06;;;;;;;6.32;3.45;;;14.50;89.90;;;;;;4702037;30;20511;-84
2021/05/11 04:41:32;;;;;;;5.05;2.65;;;14.50;89.80;;;;;;4745080;30;20064;-85
2021/05/11 04:44:03;;;;;;;6.20;3.08;;;14.50;89.70;;;;;;4730406;30;20048;-84
2021/05/11 04:46:48;;;;;;;8.60;3.58;;;14.50;89.70;;;;;;4715712;30;20065;-84
2021/05/11 04:49:14;;;;;;;6.07;3.50;;;14.50;89.80;;;;;;4716000;30;20137;-84
2021/05/11 04:51:41;;;;;;;5.18;3.13;;;14.60;89.90;;;;;;4714385;30;20040;-84
2021/05/11 04:54:08;;;;;;;7.50;3.40;;;14.60;89.80;;;;;;4745506;30;20067;-84
2021/05/11 04:56:34;;;;;;;7.07;2.92;;;14.60;89.90;;;;;;4705203;30;20416;-84
2021/05/11 04:59:02;;;;;;;10.55;3.50;;;14.60;89.90;;;;;;4729301;30;20052;-84
2021/05/11 05:01:29;;;;;;;8.27;3.97;;;14.60;90.00;;;;;;4723368;30;20082;-85
2021/05/11 05:03:58;;;;;;;6.32;3.05;;;14.60;90.00;;;;;;4720400;30;20056;-85
2021/05/11 05:06:24;;;;;;;7.57;3.42;;;14.70;90.00;;;;;;4744085;30;20067;-85
2021/05/11 05:08:51;;;;;;;6.22;3.45;;;14.70;90.00;;;;;;4705738;30;20404;-84
2021/05/11 05:11:20;;;;;;;6.38;3.25;;;14.70;90.00;;;;;;4727350;30;20783;-85
2021/05/11 05:13:49;;;;;;;5.28;2.90;;;14.70;90.00;;;;;;4727840;30;20052;-85
2021/05/11 05:16:16;;;;;;;7.03;3.50;;;14.80;90.00;;;;;;4706860;30;20052;-84
2021/05/11 05:18:42;;;;;;;6.25;3.55;;;14.80;90.00;;;;;;4728436;30;20063;-84
2021/05/11 05:21:09;;;;;;;5.68;3.30;;;14.80;90.00;;;;;;4720241;30;20062;-84
2021/05/11 05:23:42;;;;;;;6.68;3.40;;;14.90;90.00;;;;;;4705689;30;20060;-84
2021/05/11 05:26:11;;;;;;;6.97;3.15;;;14.90;90.00;;;;;;4715341;30;20060;-84
2021/05/11 05:28:40;;;;;;;8.05;3.75;;;14.90;90.00;;;;;;4712422;30;20591;-85
2021/05/11 05:31:07;;;;;;;7.70;2.67;;;14.90;90.00;;;;;;4730853;30;20055;-84
2021/05/11 05:33:38;;;;;;;4.57;2.40;;;14.90;90.00;;;;;;4735476;30;20056;-85
2021/05/11 05:36:06;;;;;;;8.75;3.10;;;14.90;90.00;;;;;;4736877;30;20063;-85
2021/05/11 05:38:35;;;;;;;7.07;3.25;;;15.00;90.00;;;;;;4693693;30;20048;-84
2021/05/11 05:41:09;;;;;;;6.35;2.80;;;15.00;90.30;;;;;;4719484;30;20393;-84
2021/05/11 05:43:39;;;;;;;6.45;2.58;;;15.10;90.00;;;;;;4729251;30;20074;-84
2021/05/11 05:46:09;;;;;;;6.38;3.53;;;15.10;90.00;;;;;;4728266;30;20048;-84
2021/05/11 05:48:39;;;;;;;10.32;3.63;;;15.10;90.10;;;;;;4720713;30;20063;-84
2021/05/11 05:51:06;;;;;;;5.88;2.83;;;15.10;90.10;;;;;;4738577;30;20055;-84
2021/05/11 05:53:37;;;;;;;7.68;3.92;;;15.10;90.10;;;;;;4703721;30;20500;-84
2021/05/11 05:56:05;;;;;;;6.03;3.60;;;15.20;90.10;;;;;;4732754;30;20071;-84
2021/05/11 05:58:32;;;;;;;7.70;3.20;;;15.20;90.40;;;;;;4718180;30;20051;-84
2021/05/11 06:01:04;;;;;;;5.85;3.22;;;15.30;90.10;;;;;;4730963;30;20068;-84
2021/05/11 06:06:07;;;;;;;10.27;4.82;;;15.40;90.10;;;;;;4732410;30;20052;-84
2021/05/11 06:08:38;;;;;;;8.30;3.65;;;15.40;90.10;;;;;;4738015;30;20125;-84
2021/05/11 06:11:18;;;;;;;8.00;4.03;;;15.40;90.20;;;;;;4731526;30;20523;-83
2021/05/11 06:19:21;;;;;;;8.63;2.63;;;15.60;90.00;;;;;;4733882;30;20051;-84
2021/05/11 06:21:48;;;;;;;6.95;3.30;;;15.70;90.00;;;;;;4706312;30;20491;-83
2021/05/11 06:24:15;;;;;;;9.40;3.72;;;15.70;90.00;;;;;;4746128;30;20060;-83
2021/05/11 06:26:42;;;;;;;7.13;3.55;;;15.80;90.00;;;;;;4708697;30;20548;-84
2021/05/11 06:29:09;;;;;;;6.10;2.97;;;15.80;90.00;;;;;;4730602;30;20060;-85
2021/05/11 06:31:36;;;;;;;9.80;3.88;;;15.90;89.90;;;;;;4730977;30;20052;-84
2021/05/11 06:34:04;;;;;;;7.25;3.40;;;15.90;89.80;;;;;;4720488;30;20055;-84
2021/05/11 06:36:30;;;;;;;6.32;3.00;;;16.00;89.80;;;;;;4721502;30;20048;-85
2021/05/11 06:38:58;;;;;;;7.95;4.03;;;16.10;89.70;;;;;;4721687;30;20060;-84
2021/05/11 06:41:26;;;;;;;6.38;2.95;;;16.20;89.60;;;;;;4728991;30;20041;-84
2021/05/11 06:43:57;;;;;;;7.13;3.00;;;16.30;89.30;;;;;;4731482;30;20493;-80
2021/05/11 06:54:12;;;;;;;6.97;4.40;;;16.70;88.50;;;;;;4732474;30;20408;-82
2021/05/11 06:56:45;;;;;;;6.38;3.53;;;16.80;88.80;;;;;;4717085;30;20396;-83
2021/05/11 06:59:13;;;;;;;5.97;3.50;;;16.90;88.30;;;;;;4706253;30;20055;-81
2021/05/11 07:01:39;;;;;;;11.55;7.50;;;16.90;87.90;;;;;;4728162;30;20060;-83
2021/05/11 07:04:06;;;;;;;9.40;3.53;;;17.00;87.70;;;;;;4714172;30;20048;-83
2021/05/11 07:06:37;;;;;;;6.30;3.03;;;17.10;87.40;;;;;;4709481;30;20061;-83
2021/05/11 07:09:08;;;;;;;5.55;2.38;;;17.20;87.10;;;;;;4708792;30;20059;-83
2021/05/11 07:14:01;;;;;;;8.93;3.72;;;17.50;85.90;;;;;;4730813;30;20067;-84
2021/05/11 07:16:28;;;;;;;8.82;3.50;;;17.70;85.20;;;;;;4712459;30;20048;-84
2021/05/11 07:18:57;;;;;;;7.53;2.75;;;17.90;84.50;;;;;;4729940;30;20052;-84
2021/05/11 07:21:24;;;;;;;6.07;3.42;;;18.10;84.20;;;;;;4720039;30;20508;-85
2021/05/11 07:23:51;;;;;;;5.53;3.22;;;18.40;83.20;;;;;;4713333;30;20049;-85
2021/05/11 07:29:09;;;;;;;4.90;2.90;;;18.80;81.20;;;;;;4711505;30;20064;-84
2021/05/11 07:31:36;;;;;;;8.43;3.15;;;18.80;80.00;;;;;;4686836;30;20041;-85
2021/05/11 07:34:05;;;;;;;5.25;3.00;;;18.90;79.70;;;;;;4713797;30;20056;-84
2021/05/11 07:36:33;;;;;;;9.57;2.40;;;19.00;79.30;;;;;;4713390;30;20067;-84
2021/05/11 07:39:00;;;;;;;3.72;1.70;;;19.20;78.80;;;;;;4701676;30;20044;-84
2021/05/11 07:41:26;;;;;;;8.48;2.50;;;19.60;78.60;;;;;;4705334;30;20041;-85
2021/05/11 07:43:56;;;;;;;6.65;2.10;;;19.80;77.60;;;;;;4691969;30;20052;-84
2021/05/11 07:46:52;;;;;;;5.30;2.78;;;20.00;77.30;;;;;;4713430;30;20497;-84
2021/05/11 08:14:25;;;;;;;5.75;2.88;;;20.60;72.10;;;;;;4712616;30;20594;-84
2021/05/11 08:16:26;;;;;;;9.77;3.78;;;20.40;73.20;;;;;;4714985;30;20052;-85
2021/05/11 08:19:10;;;;;;;4.75;2.95;;;20.20;73.50;;;;;;4725945;30;20053;-85
2021/05/11 08:29:51;;;;;;;8.02;3.75;;;19.90;74.40;;;;;;4726118;30;20064;-84
2021/05/11 08:32:17;;;;;;;5.50;3.35;;;19.80;74.70;;;;;;4702224;30;20507;-83
2021/05/11 08:34:45;;;;;;;5.40;2.70;;;19.60;75.10;;;;;;4700340;30;20056;-84
2021/05/11 08:37:16;;;;;;;6.95;3.15;;;19.50;75.70;;;;;;4708730;30;20056;-85
2021/05/11 08:39:49;;;;;;;6.20;2.38;;;19.40;76.10;;;;;;4711718;30;20053;-84
2021/05/11 08:42:16;;;;;;;9.15;3.70;;;19.30;76.60;;;;;;4702435;30;20099;-84
2021/05/11 08:44:42;;;;;;;6.35;3.45;;;19.20;76.60;;;;;;4708524;30;20044;-85
2021/05/11 08:47:11;;;;;;;9.10;3.80;;;19.20;77.00;;;;;;4690134;30;20843;-84
2021/05/11 08:49:42;;;;;;;7.35;3.90;;;19.10;77.00;;;;;;4710724;30;20044;-85
2021/05/11 08:52:28;;;;;;;5.30;3.58;;;19.10;77.20;;;;;;4720933;30;20044;-84
2021/05/11 08:55:09;;;;;;;7.32;4.70;;;19.10;77.20;;;;;;4695029;30;20825;-84
2021/05/11 09:25:30;;;;;;;4.32;3.03;;;18.70;78.60;;;;;;4744951;30;20056;-81
2021/05/11 09:28:04;;;;;;;7.18;3.30;;;18.70;78.70;;;;;;4733485;30;20048;-80
2021/05/11 09:30:57;;;;;;;9.13;6.15;;;18.70;78.60;;;;;;4743764;30;20094;-79
2021/05/11 09:33:31;;;;;;;9.80;4.68;;;18.70;78.90;;;;;;4732675;30;20040;-79
2021/05/11 10:13:53;;;;;;;7.72;4.03;;;19.80;76.20;;;;;;4745998;30;20040;-80
2021/05/11 10:48:30;;;;;;;4.75;1.90;;;22.70;66.20;;;;;;4745665;30;20040;-82
2021/05/11 10:50:59;;;;;;;3.90;1.40;;;23.10;64.70;;;;;;4718047;30;20048;-82
2021/05/11 10:53:42;;;;;;;4.25;2.00;;;23.60;63.20;;;;;;4739352;30;20051;-82
2021/05/11 10:59:20;;;;;;;4.57;1.23;;;24.40;58.70;;;;;;4720304;30;20040;-81
2021/05/11 11:01:50;;;;;;;4.05;1.10;;;24.70;58.00;;;;;;4743102;30;20044;-81
2021/05/11 11:04:22;;;;;;;4.70;1.20;;;25.00;56.40;;;;;;4730618;30;20071;-80
2021/05/11 11:07:00;;;;;;;4.88;0.95;;;25.00;55.10;;;;;;4733735;30;20051;-82
2021/05/11 11:09:29;;;;;;;2.75;0.65;;;24.90;54.80;;;;;;4722069;30;20055;-83
2021/05/11 11:11:56;;;;;;;3.75;1.00;;;24.80;55.00;;;;;;4714558;30;20044;-83
2021/05/11 11:14:23;;;;;;;6.20;0.95;;;24.70;55.10;;;;;;4745532;30;20052;-89
2021/05/11 11:17:05;;;;;;;2.60;0.52;;;24.60;54.00;;;;;;4728947;30;20496;-84
2021/05/11 11:19:32;;;;;;;3.53;0.82;;;24.20;53.10;;;;;;4745191;30;20059;-85
2021/05/11 11:23:32;;;;;;;7.32;1.13;;;23.80;53.50;;;;;;4704408;30;20065;-83
2021/05/11 11:24:51;;;;;;;4.43;1.05;;;23.40;53.60;;;;;;4716757;30;20059;-83
2021/05/11 11:27:26;;;;;;;3.92;0.68;;;23.10;54.80;;;;;;4722010;30;20048;-83
2021/05/11 11:30:10;;;;;;;3.83;0.95;;;22.80;55.70;;;;;;4745130;30;20044;-83
2021/05/11 11:32:38;;;;;;;3.38;1.00;;;22.60;56.40;;;;;;4733534;30;20051;-84
2021/05/11 11:35:07;;;;;;;5.55;1.45;;;22.30;56.90;;;;;;4716619;30;20052;-83
2021/05/11 11:37:34;;;;;;;3.63;1.60;;;22.00;57.40;;;;;;4738152;30;20392;-84
2021/05/11 11:40:07;;;;;;;4.05;1.08;;;21.70;58.40;;;;;;4744285;30;20048;-84
2021/05/11 11:42:37;;;;;;;5.05;1.00;;;21.40;59.30;;;;;;4745461;30;20056;-89
2021/05/11 11:45:23;;;;;;;4.90;0.98;;;21.30;60.00;;;;;;4740607;30;20058;-90
2021/05/11 11:47:59;;;;;;;5.32;1.00;;;21.10;60.60;;;;;;4710207;30;20539;-89
2021/05/11 11:50:27;;;;;;;5.82;1.63;;;20.90;60.90;;;;;;4718434;30;20048;-79
2021/05/11 11:55:36;;;;;;;4.10;1.63;;;20.60;61.50;;;;;;4715260;30;20052;-82
2021/05/11 11:58:03;;;;;;;4.43;1.15;;;20.50;61.90;;;;;;4742317;30;20055;-82
2021/05/11 12:00:34;;;;;;;5.35;1.55;;;20.30;62.10;;;;;;4687483;30;20056;-82
2021/05/11 12:03:05;;;;;;;3.67;1.08;;;20.20;62.30;;;;;;4741158;30;20060;-82
2021/05/11 12:05:37;;;;;;;4.20;1.17;;;20.10;62.70;;;;;;4728741;30;20064;-85
2021/05/11 12:08:21;;;;;;;7.63;1.50;;;20.00;63.10;;;;;;4740037;30;20069;-90
2021/05/11 12:10:53;;;;;;;6.03;1.98;;;19.90;63.70;;;;;;4694776;30;20036;-90
2021/05/11 12:13:30;;;;;;;3.85;1.42;;;19.70;64.50;;;;;;4737198;30;20048;-91
2021/05/11 12:16:16;;;;;;;4.03;2.20;;;19.50;67.20;;;;;;4735961;30;20058;-92
2021/05/11 12:21:33;;;;;;;3.72;2.08;;;18.90;73.10;;;;;;4732975;30;20047;-93
2021/05/11 12:24:10;;;;;;;6.68;2.35;;;18.60;74.40;;;;;;4694734;30;20040;-88
2021/05/11 12:26:40;;;;;;;4.82;2.80;;;18.30;76.40;;;;;;4722422;30;20099;-86
2021/05/11 12:29:14;;;;;;;8.93;3.90;;;18.10;78.60;;;;;;4714040;30;20040;-86
2021/05/11 12:31:45;;;;;;;6.72;3.95;;;17.80;81.60;;;;;;4702949;30;20036;-86
2021/05/11 12:34:14;;;;;;;8.65;4.25;;;17.50;83.60;;;;;;4723147;30;20048;-86
2021/05/11 12:36:47;;;;;;;7.72;5.00;;;17.30;85.20;;;;;;4731612;30;20043;-87
2021/05/11 12:42:11;;;;;;;6.75;3.85;;;16.90;87.70;;;;;;4742868;30;20055;-85
2021/05/11 12:44:38;;;;;;;7.22;4.88;;;16.80;88.70;;;;;;4722364;30;20575;-85
2021/05/11 12:47:06;;;;;;;6.13;4.57;;;16.80;89.60;;;;;;4715574;30;20059;-85
2021/05/11 12:49:32;;;;;;;6.28;5.30;;;16.80;90.40;;;;;;4729398;30;20407;-85
2021/05/11 12:52:00;;;;;;;9.23;5.28;;;16.70;90.50;;;;;;4744281;30;20813;-86
2021/05/11 12:54:28;;;;;;;6.20;5.22;;;16.80;91.00;;;;;;4743472;30;20059;-86
2021/05/11 12:59:37;;;;;;;7.93;4.80;;;16.80;91.30;;;;;;4730592;30;20040;-87
2021/05/11 13:02:18;;;;;;;7.80;4.07;;;16.80;91.50;;;;;;4730753;30;20056;-87
2021/05/11 13:25:42;;;;;;;7.90;4.20;;;16.60;92.70;;;;;;4737365;30;20059;-78
2021/05/11 13:35:34;;;;;;;;;;;16.80;93.50;;;;;;4731528;30;20063;-83
2021/05/11 13:38:02;;;;;;;7.68;4.47;;;16.80;93.70;;;;;;4707682;30;19922;-83
2021/05/11 13:40:28;;;;;;;6.28;4.05;;;16.90;93.80;;;;;;4744979;30;20063;-82
2021/05/11 13:42:55;;;;;;;7.78;3.83;;;16.90;93.80;;;;;;4746877;30;20059;-86
2021/05/11 13:45:24;;;;;;;5.00;3.78;;;16.90;93.70;;;;;;4728206;30;20051;-83
2021/05/11 13:48:00;;;;;;;6.30;4.35;;;16.90;93.70;;;;;;4748049;30;20492;-79
2021/05/11 13:50:41;;;;;;;11.25;6.50;;;16.90;93.80;;;;;;4721474;30;20044;-79
2021/05/11 13:53:07;;;;;;;8.55;6.07;;;16.90;93.80;;;;;;4730007;30;20036;-79
2021/05/11 13:56:17;;;;;;;7.90;4.85;;;16.90;93.80;;;;;;4709475;30;20060;-79
2021/05/11 14:03:58;;;;;;;8.68;5.72;;;16.70;93.80;;;;;;4743878;30;20060;-78
2021/05/11 14:06:25;;;;;;;7.30;5.07;;;16.60;93.70;;;;;;4735139;30;20516;-80
2021/05/11 14:08:52;;;;;;;9.27;4.38;;;16.50;93.60;;;;;;4730326;30;20048;-79
2021/05/11 14:11:18;;;;;;;7.95;4.65;;;16.50;93.80;;;;;;4746622;30;20063;-80
2021/05/11 14:13:45;;;;;;;8.23;4.57;;;16.60;93.90;;;;;;4718084;30;20060;-79
2021/05/11 14:16:11;;;;;;;10.27;6.35;;;16.60;94.10;;;;;;4745866;30;20055;-77
2021/05/11 14:18:38;;;;;;;7.50;5.53;;;16.60;94.00;;;;;;4737062;30;20044;-77
2021/05/11 14:21:06;;;;;;;6.80;4.95;;;16.60;94.10;;;;;;4727007;30;20047;-77
2021/05/11 14:23:44;;;;;;;11.60;5.95;;;16.60;94.30;;;;;;4718430;30;20043;-77
2021/05/11 14:26:11;;;;;;;9.35;5.53;;;16.60;94.40;;;;;;4743850;30;20067;-77
2021/05/11 14:28:38;;;;;;;9.60;6.43;;;16.60;94.40;;;;;;4729217;30;20091;-78
2021/05/11 14:31:04;;;;;;;8.38;5.45;;;16.60;94.50;;;;;;4743083;30;20149;-77
2021/05/11 14:33:31;;;;;;;7.93;5.50;;;16.60;94.60;;;;;;4746128;30;20059;-76
2021/05/11 14:35:57;;;;;;;9.70;6.72;;;16.60;94.70;;;;;;4729684;30;20052;-76
2021/05/11 14:38:24;;;;;;;11.63;6.45;;;16.60;94.70;;;;;;4744878;30;20417;-77
2021/05/11 14:40:51;;;;;;;10.90;6.35;;;16.60;94.60;;;;;;4740886;30;20060;-76
2021/05/11 14:43:17;;;;;;;7.75;5.97;;;16.50;94.40;;;;;;4745374;30;20051;-77
2021/05/11 14:45:44;;;;;;;7.88;4.85;;;16.50;94.50;;;;;;4715397;30;20056;-76
2021/05/11 14:48:10;;;;;;;7.45;5.25;;;16.40;94.90;;;;;;4719405;30;20055;-76
2021/05/11 14:50:37;;;;;;;7.90;5.82;;;16.50;94.60;;;;;;4727678;30;20044;-77
2021/05/11 14:53:03;;;;;;;8.40;6.93;;;16.50;94.80;;;;;;4745192;30;20071;-76
2021/05/11 14:55:30;;;;;;;8.10;7.22;;;16.50;94.90;;;;;;4717781;30;20052;-78
2021/05/11 14:57:57;;;;;;;10.73;9.32;;;16.40;94.90;;;;;;4746149;30;20071;-78
2021/05/11 15:00:24;;;;;;;10.27;9.30;;;16.40;95.00;;;;;;4728333;30;20068;-79
2021/05/11 15:02:51;;;;;;;10.05;9.15;;;16.40;95.10;;;;;;4743242;30;20044;-79
2021/05/11 15:05:17;;;;;;;11.30;10.05;;;16.40;95.10;;;;;;4730423;30;20056;-79
2021/05/11 15:07:47;;;;;;;9.85;8.60;;;16.30;95.00;;;;;;4730008;30;20393;-78
2021/05/11 15:10:14;;;;;;;9.45;8.55;;;16.30;95.10;;;;;;4716315;30;20057;-79
2021/05/11 15:12:41;;;;;;;8.98;8.13;;;16.30;95.20;;;;;;4745345;30;20055;-78
2021/05/11 15:15:09;;;;;;;8.65;7.75;;;16.30;95.10;;;;;;4714309;30;20105;-79
2021/05/11 15:20:03;;;;;;;9.05;8.25;;;16.20;95.20;;;;;;4741999;30;20043;-77
2021/05/11 15:22:29;;;;;;;10.55;9.55;;;16.20;95.20;;;;;;4742632;30;20047;-78
2021/05/11 15:24:56;;;;;;;10.60;9.60;;;16.20;95.30;;;;;;4742809;30;20024;-78
2021/05/11 15:27:22;;;;;;;10.48;9.50;;;16.10;95.30;;;;;;4728480;30;20056;-78
2021/05/11 15:29:49;;;;;;;9.30;8.40;;;16.10;95.40;;;;;;4713374;30;20519;-78
2021/05/11 15:32:48;;;;;;;10.13;9.15;;;16.10;95.40;;;;;;4733185;30;20051;-78
2021/05/11 15:35:17;;;;;;;10.50;9.40;;;16.10;95.40;;;;;;4743559;30;21528;-78
2021/05/11 15:37:46;;;;;;;10.50;9.52;;;16.10;95.70;;;;;;4732713;30;20060;-78
2021/05/11 15:40:16;;;;;;;12.77;11.48;;;16.00;95.80;;;;;;4712901;30;20048;-78
2021/05/11 15:42:43;;;;;;;16.13;13.52;;;16.00;95.60;;;;;;4705207;30;20408;-78
2021/05/11 15:45:11;;;;;;;13.90;12.50;;;16.10;95.70;;;;;;4719195;30;20045;-78
2021/05/11 15:47:38;;;;;;;15.68;14.10;;;16.00;95.70;;;;;;4729476;30;20523;-77
2021/05/11 15:50:05;;;;;;;13.40;12.00;;;16.00;95.80;;;;;;4728489;30;20527;-78
2021/05/11 15:52:32;;;;;;;17.45;15.95;;;16.00;95.90;;;;;;4700520;30;20051;-78
2021/05/11 15:54:59;;;;;;;16.13;13.40;;;16.00;96.10;;;;;;4741921;30;20056;-78
2021/05/11 15:57:25;;;;;;;13.70;12.35;;;16.00;96.20;;;;;;4727538;30;20077;-77
2021/05/11 15:59:52;;;;;;;12.07;10.82;;;16.00;96.20;;;;;;4725698;30;20052;-78
2021/05/11 16:02:18;;;;;;;12.27;10.15;;;16.00;96.30;;;;;;4728324;30;20044;-77
2021/05/11 16:04:45;;;;;;;10.85;9.82;;;16.00;96.30;;;;;;4728580;30;20052;-77
2021/05/11 16:07:12;;;;;;;10.38;8.73;;;16.10;96.40;;;;;;4742504;30;20044;-78
2021/05/11 16:09:39;;;;;;;10.95;9.82;;;16.10;96.40;;;;;;4743601;30;20071;-78
2021/05/11 16:12:06;;;;;;;11.98;10.80;;;16.20;96.50;;;;;;4724904;30;20055;-77
2021/05/11 16:14:33;;;;;;;11.70;10.20;;;16.20;96.50;;;;;;4697129;30;20056;-77
2021/05/11 16:17:00;;;;;;;11.77;10.70;;;16.30;96.50;;;;;;4713437;30;20067;-77
2021/05/11 16:19:29;;;;;;;10.60;9.50;;;16.30;96.50;;;;;;4743814;30;20786;-77
2021/05/11 16:21:56;;;;;;;9.35;8.32;;;16.30;96.50;;;;;;4728322;30;20052;-78
2021/05/11 16:24:22;;;;;;;11.13;9.95;;;16.30;96.50;;;;;;4742451;30;20066;-77
2021/05/11 16:26:49;;;;;;;9.80;8.80;;;16.20;96.50;;;;;;4744881;30;20060;-77
2021/05/11 16:29:15;;;;;;;9.68;8.63;;;16.20;96.60;;;;;;4718208;30;20412;-77
2021/05/11 16:31:42;;;;;;;9.88;8.88;;;16.20;96.60;;;;;;4727979;30;20408;-77
2021/05/11 16:34:08;;;;;;;10.30;9.30;;;16.20;96.60;;;;;;4713337;30;20044;-77
2021/05/11 16:36:35;;;;;;;11.95;9.65;;;16.20;96.60;;;;;;4728120;30;20071;-77
2021/05/11 16:39:02;;;;;;;10.80;9.70;;;16.20;96.70;;;;;;4727400;30;20044;-77
2021/05/11 16:41:28;;;;;;;10.07;9.15;;;16.20;96.80;;;;;;4727884;30;20052;-77
2021/05/11 16:43:57;;;;;;;10.50;9.50;;;16.20;96.80;;;;;;4731705;30;20369;-77
2021/05/11 16:46:24;;;;;;;11.00;9.85;;;16.30;96.80;;;;;;4742862;30;20059;-77
2021/05/11 16:48:51;;;;;;;11.43;10.32;;;16.30;96.80;;;;;;4739420;30;20507;-77
2021/05/11 16:51:18;;;;;;;11.95;10.75;;;16.30;96.90;;;;;;4699119;30;20055;-78
2021/05/11 16:53:44;;;;;;;12.00;10.43;;;16.30;96.90;;;;;;4743337;30;20516;-81
2021/05/11 16:56:11;;;;;;;10.18;9.27;;;16.30;96.90;;;;;;4701426;30;20052;-81
2021/05/11 16:58:37;;;;;;;12.30;11.00;;;16.20;96.90;;;;;;4716271;30;20440;-77
2021/05/11 17:01:04;;;;;;;12.13;10.93;;;16.20;97.00;;;;;;4742349;30;20500;-77
2021/05/11 17:03:30;;;;;;;11.68;10.30;;;16.20;97.00;;;;;;4740684;30;20044;-77
2021/05/11 17:05:57;;;;;;;12.30;11.20;;;16.20;97.10;;;;;;4742437;30;20051;-77
2021/05/11 17:08:23;;;;;;;12.35;11.07;;;16.20;97.10;;;;;;4726758;30;20056;-77
2021/05/11 17:10:50;;;;;;;11.00;9.90;;;16.20;97.10;;;;;;4742153;30;20051;-77
2021/05/11 17:13:17;;;;;;;12.10;10.80;;;16.20;97.20;;;;;;4700847;30;20052;-77
2021/05/11 17:15:43;;;;;;;11.68;10.48;;;16.20;97.20;;;;;;4727727;30;20067;-77
2021/05/11 17:18:10;;;;;;;12.85;10.90;;;16.20;97.30;;;;;;4714295;30;20132;-77